Smithsburg, Maryland
Current Conditions -  °F | °C
As of 8:53 PM on Saturday 25 Oct 2014 (Local Time) from KHGR Reporting Station
Clear Clear  
Wind Chill: 64°   Ceiling: Unl
Heat Index: 64°   Visibility: 10mi
Dew Point: 46°   Wind: 9mph
Humidity: 52%   Direction: 250°WSW
Pressure: 29.71"   Gusts: NA
Location:  39.65°N, 77.57°W
Report Text: KHGR 260053Z AUTO 25008KT 10SM CLR 18/08 A2971 RMK AO2 SLP070 T01780078
Loading
Personal Weather Stations






























Interactive Weather Map
Tropical Storm Tracking
New forecast layout! Learn more

10-Day Weather Forecast

Advertisements
Track Severe Weather on mobile